Valparaiso, Chile
Current Conditions -  °F | °C
As of 11:00 AM on Thursday 30 Oct 2014 (Local Time) from SCVM Reporting Station
Clear Clear  
Wind Chill: 68°   Ceiling: Unl
Heat Index: 68°   Visibility: 6mi
Dew Point: 48°   Wind: 7mph
Humidity: 49%   Direction: 180°S
Pressure: 30"   Gusts: NA
Location:  33.04°S, 71.64°W
Report Text: SCVM 301500Z 18006KT CAVOK 20/09 Q1016
Loading
Personal Weather Stations






























Interactive Weather Map
Tropical Storm Tracking
New forecast layout! Learn more

10-Day Weather Forecast

Advertisements
Track Severe Weather on mobile